Aérodrome :
LOGIN :

S'inscrire | Disclaimer

   EN    FR    IT 

 










Légende :    VFR   VFR Marginal   IFR   IFR Intensif   IFR Très Intensif
Visi : 
Plafond : 
>= 8 km
>= 3000ft
5 à 8 km
1000 à 3000 ft
1500m à 5 km
500 à 1000 ft
800 à 1500m
200 à 500 ft
< 800m
< 200 ft
Symboles :   Orages  Brouillard  Fortes neiges  Fortes précipitations  Vent > 20 kt
SIGMETs :   Divers  Orages  Givrage  Turbulence  Onde Orograph.  Cendres Volcan.







- Altitude de l'aérodrome : 245 ft
- Code IATA : BIQ
- Voir les cartes d'approche


LFBZ - Biarritz

DERNIER METAR :
  • 201930Z AUTO 01003KT 9999 FEW026/// BKN039/// BKN052/// ///TCU 09/07 Q1018 TEMPO 4000 SHRA BKN010 BKN025TCU

METARs EXPIRÉS :
  • 201900Z AUTO 03003KT 280V080 9999 SCT021/// SCT030/// BKN056/// ///CB 09/06 Q1017 TEMPO 4000 SHRA BKN010 BKN025TCU
  • 201830Z AUTO VRB03KT 9999 FEW041/// BKN052/// BKN100/// ///CB 09/06 Q1017 TEMPO 4000 SHRA BKN010 BKN025TCU
  • 201800Z AUTO 32005KT 280V360 9999 SCT025/// BKN033/// BKN041/// ///TCU 10/07 Q1017 TEMPO 4000 SHRA BKN010 BKN025TCU
  • 201730Z AUTO 31004KT 9999 SCT052/// SCT130/// BKN220/// ///TCU 09/07 Q1016 TEMPO 4000 SHRA BKN010 BKN025TCU
  • 201700Z AUTO 31005KT 9999 FEW027/// SCT052/// BKN078/// ///TCU 09/07 Q1016 TEMPO 4000 SHRA BKN010 BKN025TCU

TAF TAF LFBZ
Valide du 20 à 18h jusqu'au 21 à 18h UTC


201700Z 2018/2118 33008KT 9999 BKN035
PROB30
TEMPO 2018/2115 4000 SHRA BKN010 BKN025TCU
Pas de NOTAMs connus pour ce terrain.



MET'MAP, la Météo Aéronautique d'un coup d'oeil ! - Copyright ORBIFLY Décembre 2007 - Disclaimer

ORBIFLY MET'MAP TEAM :

Programmation & Développement : Alexandra Zaïnal
Conception & Développement : Baudouin d'Aumeries
Co-Programmation & Développement : Marc-Olivier Méhu
Soutien technique & logistique : Manuel Goepfert

Contact : metmap@orbifly.com




SOURCES & CREDITS :

   NOAA